Terminal Aerodrome Forecast
Issued by NWS Grand Junction, CO

Home | Current Version | Previous Version | Text Only | Print | Product List | Glossary On
Versions: 1 2 3 4 5 6 7 8 9 10 11 12 13 14
000
FTUS45 KGJT 260528
TAFGJT
TAF
KGJT 260528Z 2606/2706 06003KT P6SM SKC
     FM260700 11008KT P6SM SKC
     FM262000 29006KT P6SM SKC
     FM270200 04006KT P6SM SKC=

USA.gov is the U.S. government's official web portal to all federal, state and local government web resources and services.